RPLC/CRK METAR and TAF weather

Enter ICAO airport designator
Station Type Date Time Source
RPLC METAR 2019/12/06 02:00 UTC NOAA

RPLC 060200Z 02008KT 8000 SCT020 BKN300 29/25 Q1012 NOSIG RMK A2988


Station Type Date Time Source
RPLC Decoded METAR 2019/12/06 02:00 UTC NOAA

Clarkfield Pampanga International Airport, Philippines (RPLC) 15-11N 120-33E
Dec 05, 2019 - 09:00 PM EST / 2019.12.06 0200 UTC
Wind: from the NNE (020 degrees) at 9 MPH (8 KT):0
Visibility: 4 mile(s):0
Sky conditions: mostly cloudy
Temperature: 84 F (29 C)
Dew Point: 77 F (25 C)
Relative Humidity: 79%
Pressure (altimeter): 29.88 in. Hg (1012 hPa)
ob: RPLC 060200Z 02008KT 8000 SCT020 BKN300 29/25 Q1012 NOSIG RMK A2988
cycle: 2

Station Type Date Time Source
RPLC TAF 2019/12/05 18:03 UTC NOAA

TAF RPLC 051700Z 0518/0624 33006KT 9000 FEW020 BKN300 TX31/0606Z TN24/0522Z
TEMPO 0518/0524 08005KT FEW020 BKN300

Example: see airport list